createdAt,value
2022-10-21T00:00:50.479Z,23.00
2022-10-21T00:03:53.774Z,25.75
2022-10-21T00:06:58.408Z,22.75
2022-10-21T00:10:01.756Z,25.50
2022-10-21T00:13:05.429Z,24.00
2022-10-21T00:16:11.434Z,25.25
2022-10-21T00:19:14.723Z,24.60
2022-10-21T00:22:19.864Z,24.00
2022-10-21T00:25:23.082Z,26.00
2022-10-21T00:28:27.216Z,26.00
2022-10-21T00:31:30.692Z,24.00
2022-10-21T00:34:34.176Z,23.20
2022-10-21T00:37:39.123Z,26.00
2022-10-21T00:40:42.897Z,24.60
2022-10-21T00:43:58.363Z,26.00
2022-10-21T00:47:05.813Z,25.00
2022-10-21T00:50:23.086Z,24.00
2022-10-21T00:53:29.025Z,24.40
2022-10-21T00:56:35.181Z,23.00
2022-10-21T00:59:42.226Z,24.00
2022-10-21T01:02:46.234Z,24.00
2022-10-21T01:09:00.940Z,26.00
2022-10-21T01:12:08.438Z,24.00
2022-10-21T01:15:20.002Z,24.00
2022-10-21T01:18:32.135Z,25.00
2022-10-21T01:21:42.849Z,26.00
2022-10-21T01:25:03.587Z,26.80
2022-10-21T01:28:18.841Z,24.00
2022-10-21T01:31:32.026Z,24.00
2022-10-21T01:34:42.505Z,26.00
2022-10-21T01:37:52.689Z,23.80
2022-10-21T01:41:03.184Z,24.00
2022-10-21T01:44:15.703Z,24.50
2022-10-21T01:47:23.761Z,24.00
2022-10-21T01:50:29.291Z,26.00
2022-10-21T01:53:38.039Z,25.40
2022-10-21T01:56:44.348Z,24.00
2022-10-21T01:59:49.245Z,26.00
2022-10-21T02:02:54.203Z,25.00
2022-10-21T02:05:57.526Z,25.00
2022-10-21T02:09:01.186Z,25.00
2022-10-21T02:12:07.138Z,25.60
2022-10-21T02:15:13.615Z,26.00
2022-10-21T02:18:24.442Z,24.00
2022-10-21T02:21:32.551Z,25.60
2022-10-21T02:24:44.113Z,26.00
2022-10-21T02:27:48.617Z,26.40
2022-10-21T02:31:07.871Z,25.80
2022-10-21T02:34:21.658Z,24.00
2022-10-21T02:37:33.392Z,24.00
2022-10-21T02:40:41.676Z,24.00
2022-10-21T02:43:50.375Z,23.00
2022-10-21T02:46:54.370Z,23.40
2022-10-21T02:49:59.129Z,24.00
2022-10-21T02:53:02.497Z,24.00
2022-10-21T02:56:06.238Z,23.00
2022-10-21T02:59:10.112Z,26.00
2022-10-21T03:02:13.443Z,26.00
2022-10-21T03:05:18.426Z,24.25
2022-10-21T03:08:21.865Z,23.00
2022-10-21T03:11:25.255Z,24.60
2022-10-21T03:14:28.719Z,24.00
2022-10-21T03:17:32.241Z,23.00
2022-10-21T03:20:37.179Z,23.00
2022-10-21T03:23:40.469Z,23.00
2022-10-21T03:26:43.738Z,23.00
2022-10-21T03:29:47.342Z,23.00
2022-10-21T03:32:50.932Z,24.00
2022-10-21T03:35:55.615Z,24.00
2022-10-21T03:38:58.843Z,24.00
2022-10-21T03:42:02.081Z,23.00
2022-10-21T03:45:05.979Z,24.00
2022-10-21T03:48:09.291Z,25.60
2022-10-21T03:51:13.925Z,23.00
2022-10-21T03:54:17.613Z,23.00
2022-10-21T03:57:20.963Z,24.00
2022-10-21T04:00:27.064Z,24.00
2022-10-21T04:03:32.898Z,24.50
2022-10-21T04:06:37.935Z,16.80
2022-10-21T04:09:41.236Z,23.40
2022-10-21T04:12:44.549Z,22.20
2022-10-21T04:15:47.895Z,24.00
2022-10-21T04:18:51.328Z,24.00
2022-10-21T04:21:56.001Z,24.00
2022-10-21T04:25:02.268Z,23.00
2022-10-21T04:28:08.017Z,23.50
2022-10-21T04:31:11.701Z,23.00
2022-10-21T04:34:15.405Z,22.20
2022-10-21T04:37:20.076Z,22.40
2022-10-21T04:40:23.398Z,22.00
2022-10-21T04:43:27.219Z,23.00
2022-10-21T04:46:30.783Z,23.00
2022-10-21T04:49:33.983Z,24.00
2022-10-21T04:52:39.489Z,22.40
2022-10-21T04:55:42.973Z,23.40
2022-10-21T04:58:46.645Z,23.00
2022-10-21T05:01:50.044Z,23.00
2022-10-21T05:04:55.937Z,23.00
2022-10-21T05:08:00.654Z,24.00
2022-10-21T05:11:05.096Z,24.00
2022-10-21T05:14:08.420Z,23.20
2022-10-21T05:17:11.944Z,27.00
2022-10-21T05:20:15.613Z,25.33
2022-10-21T05:23:21.108Z,24.00
2022-10-21T05:26:25.277Z,24.00
2022-10-21T05:29:28.711Z,23.00
2022-10-21T05:32:32.804Z,27.00
2022-10-21T05:35:36.597Z,25.80
2022-10-21T05:38:41.462Z,24.00
2022-10-21T05:41:47.827Z,23.00
2022-10-21T05:44:51.778Z,23.60
2022-10-21T05:47:55.119Z,24.00
2022-10-21T05:50:58.599Z,24.00
2022-10-21T05:54:05.615Z,24.00
2022-10-21T05:57:08.986Z,24.25
2022-10-21T06:00:13.840Z,23.20
2022-10-21T06:03:17.389Z,26.00
2022-10-21T06:06:20.961Z,24.00
2022-10-21T06:09:25.700Z,24.00
2022-10-21T06:12:29.754Z,24.00
2022-10-21T06:15:37.219Z,24.00
2022-10-21T06:18:41.585Z,24.40
2022-10-21T06:21:44.917Z,25.00
2022-10-21T06:24:50.867Z,24.00
2022-10-21T06:27:54.379Z,24.00
2022-10-21T06:30:57.897Z,25.25
2022-10-21T06:34:01.197Z,24.00
2022-10-21T06:37:05.113Z,24.25
2022-10-21T06:40:11.333Z,24.00
2022-10-21T06:43:14.625Z,24.33
2022-10-21T06:46:18.183Z,24.00
2022-10-21T06:49:21.632Z,22.80
2022-10-21T06:55:30.566Z,24.00
2022-10-21T06:58:34.091Z,24.00
2022-10-21T07:02:02.821Z,24.00
2022-10-21T07:05:01.418Z,24.00
2022-10-21T07:08:05.939Z,24.00
2022-10-21T07:11:12.726Z,24.40
2022-10-21T07:14:16.004Z,24.00
2022-10-21T07:17:21.706Z,26.00
2022-10-21T07:20:25.498Z,26.00
2022-10-21T07:23:28.886Z,26.00
2022-10-21T07:26:35.835Z,24.80
2022-10-21T07:29:39.379Z,23.00
2022-10-21T07:32:42.714Z,25.60
2022-10-21T07:35:46.139Z,25.20
2022-10-21T07:38:51.218Z,26.00
2022-10-21T07:41:58.009Z,25.75
2022-10-21T07:45:03.752Z,24.00
2022-10-21T07:48:07.305Z,24.00
2022-10-21T07:51:13.376Z,24.00
2022-10-21T07:54:17.301Z,24.00
2022-10-21T07:57:22.067Z,24.00
2022-10-21T08:00:25.750Z,22.00
2022-10-21T08:03:29.596Z,22.00
2022-10-21T08:06:32.905Z,22.00
2022-10-21T08:09:36.136Z,23.00
2022-10-21T08:12:41.056Z,23.00
2022-10-21T08:15:44.942Z,22.00
2022-10-21T08:18:48.674Z,23.00
2022-10-21T08:21:51.981Z,22.00
2022-10-21T08:24:55.688Z,23.00
2022-10-21T08:28:00.655Z,23.00
2022-10-21T08:31:05.081Z,23.80
2022-10-21T08:34:08.409Z,23.40
2022-10-21T08:37:11.768Z,22.25
2022-10-21T08:40:15.106Z,22.00
2022-10-21T08:43:24.755Z,24.00
2022-10-21T08:46:33.129Z,23.80
2022-10-21T08:49:48.538Z,27.00
2022-10-21T08:52:56.697Z,24.80
2022-10-21T08:56:05.053Z,27.40
2022-10-21T08:59:21.769Z,27.00
2022-10-21T09:02:41.461Z,26.00
2022-10-21T09:06:08.423Z,24.75
2022-10-21T09:09:21.283Z,25.80
2022-10-21T09:12:33.337Z,23.00
2022-10-21T09:15:50.799Z,24.00
2022-10-21T09:19:04.564Z,23.40
2022-10-21T09:22:36.112Z,25.00
2022-10-21T09:25:49.490Z,24.00
2022-10-21T09:28:52.826Z,24.00
2022-10-21T09:32:04.081Z,24.00
2022-10-21T09:35:17.081Z,25.00
2022-10-21T09:38:27.193Z,25.00
2022-10-21T09:41:34.917Z,24.40
2022-10-21T09:44:38.195Z,24.00
2022-10-21T09:47:43.385Z,24.00
2022-10-21T09:50:49.759Z,24.40
2022-10-21T09:53:55.631Z,25.33
2022-10-21T09:57:06.543Z,22.00
2022-10-21T10:00:13.653Z,22.00
2022-10-21T10:03:34.466Z,23.00
2022-10-21T10:06:39.473Z,22.00
2022-10-21T10:09:47.525Z,23.00
2022-10-21T10:12:58.286Z,22.00
2022-10-21T10:16:23.857Z,22.80
2022-10-21T10:19:29.918Z,23.00
2022-10-21T10:22:35.960Z,23.00
2022-10-21T10:25:40.712Z,26.00
2022-10-21T10:28:51.676Z,24.80
2022-10-21T10:31:57.642Z,23.00
2022-10-21T10:35:05.965Z,23.60
2022-10-21T10:38:17.806Z,22.40
2022-10-21T10:41:21.685Z,23.00
2022-10-21T10:44:32.907Z,22.00
2022-10-21T10:47:43.087Z,22.75
2022-10-21T10:50:49.535Z,23.00
2022-10-21T10:54:02.966Z,24.00
2022-10-21T10:57:11.861Z,24.00
2022-10-21T11:00:19.079Z,23.00
2022-10-21T11:03:29.076Z,24.00
2022-10-21T11:06:41.924Z,25.00
2022-10-21T11:09:46.709Z,23.00
2022-10-21T11:12:50.095Z,23.00
2022-10-21T11:16:11.601Z,22.20
2022-10-21T11:19:23.347Z,23.60
2022-10-21T11:22:40.597Z,23.60
2022-10-21T11:25:48.584Z,24.00
2022-10-21T11:28:56.953Z,24.00
2022-10-21T11:32:12.164Z,25.50
2022-10-21T11:35:29.929Z,22.25
2022-10-21T11:38:48.136Z,23.75
2022-10-21T11:41:58.112Z,25.00
2022-10-21T11:45:24.241Z,23.25
2022-10-21T11:48:40.444Z,24.00
2022-10-21T11:51:54.723Z,22.00
2022-10-21T11:55:11.077Z,22.00
2022-10-21T11:58:39.755Z,23.00
2022-10-21T12:01:53.383Z,21.00
2022-10-21T12:05:09.097Z,20.00
2022-10-21T12:08:18.219Z,20.25
2022-10-21T12:11:27.966Z,19.00
2022-10-21T12:14:35.848Z,19.40
2022-10-21T12:17:39.354Z,19.00
2022-10-21T12:20:45.044Z,20.00
2022-10-21T12:23:53.206Z,19.20
2022-10-21T12:27:08.910Z,18.00
2022-10-21T12:30:20.052Z,17.00
2022-10-21T12:33:37.221Z,17.33
2022-10-21T12:36:44.183Z,18.00
2022-10-21T12:39:52.515Z,15.80
2022-10-21T12:43:02.600Z,15.00
2022-10-21T12:46:09.153Z,19.00
2022-10-21T12:49:27.415Z,17.00
2022-10-21T12:52:31.858Z,17.00
2022-10-21T12:55:40.896Z,15.60
2022-10-21T12:58:47.580Z,16.00
2022-10-21T13:02:11.675Z,16.75
2022-10-21T13:05:52.582Z,18.00
2022-10-21T13:08:57.484Z,17.40
2022-10-21T13:12:14.258Z,16.00
2022-10-21T13:15:52.379Z,17.50
2022-10-21T13:18:58.576Z,17.50
2022-10-21T13:22:04.455Z,16.40
2022-10-21T13:25:21.208Z,15.60
2022-10-21T13:28:25.774Z,16.00
2022-10-21T13:31:31.111Z,13.25
2022-10-21T13:34:37.956Z,16.25
2022-10-21T13:37:56.886Z,16.00
2022-10-21T13:41:02.896Z,17.60
2022-10-21T13:44:08.193Z,17.00
2022-10-21T13:47:29.217Z,15.40
2022-10-21T13:50:35.421Z,15.00
2022-10-21T13:53:45.724Z,16.00
2022-10-21T13:56:49.547Z,14.00
2022-10-21T14:00:01.455Z,14.00
2022-10-21T14:03:07.441Z,13.00
2022-10-21T14:06:13.490Z,12.00
2022-10-21T14:09:21.404Z,12.00
2022-10-21T14:12:27.676Z,12.80
2022-10-21T14:15:40.872Z,10.00
2022-10-21T14:18:49.325Z,11.50
2022-10-21T14:21:56.688Z,13.20
2022-10-21T14:25:02.850Z,13.00
2022-10-21T14:28:06.770Z,11.00
2022-10-21T14:31:13.049Z,10.00
2022-10-21T14:34:25.137Z,12.80
2022-10-21T14:37:35.055Z,12.00
2022-10-21T14:40:41.650Z,12.40
2022-10-21T14:43:47.739Z,11.00
2022-10-21T14:46:54.195Z,10.00
2022-10-21T14:49:59.965Z,12.40
2022-10-21T14:53:04.429Z,10.40
2022-10-21T14:56:14.567Z,10.00
2022-10-21T14:59:23.689Z,11.80
2022-10-21T15:02:29.456Z,12.25
2022-10-21T15:05:37.640Z,14.00
2022-10-21T15:08:43.323Z,12.00
2022-10-21T15:11:47.940Z,12.00
2022-10-21T15:14:51.297Z,13.00
2022-10-21T15:18:02.880Z,11.40
2022-10-21T15:21:14.113Z,11.00
2022-10-21T15:24:21.919Z,12.00
2022-10-21T15:27:32.823Z,11.60
2022-10-21T15:30:38.570Z,11.40
2022-10-21T15:33:42.304Z,11.00
2022-10-21T15:36:47.069Z,13.00
2022-10-21T15:39:50.366Z,11.00
2022-10-21T15:42:55.706Z,12.00
2022-10-21T15:45:59.037Z,12.00
2022-10-21T15:49:14.380Z,12.80
2022-10-21T15:52:19.733Z,11.40
2022-10-21T15:55:23.046Z,11.00
2022-10-21T15:58:26.264Z,11.00
2022-10-21T16:01:29.654Z,10.50
2022-10-21T16:04:33.068Z,11.40
2022-10-21T16:07:37.719Z,14.00
2022-10-21T16:10:47.625Z,14.00
2022-10-21T16:13:50.999Z,14.00
2022-10-21T16:16:57.392Z,13.00
2022-10-21T16:20:00.716Z,16.00
2022-10-21T16:23:05.436Z,11.00
2022-10-21T16:26:15.696Z,11.80
2022-10-21T16:29:21.425Z,12.80
2022-10-21T16:32:24.739Z,12.25
2022-10-21T16:35:28.285Z,13.00
2022-10-21T16:38:32.999Z,13.60
2022-10-21T16:41:36.611Z,15.00
2022-10-21T16:44:39.985Z,15.00
2022-10-21T16:47:48.237Z,13.00
2022-10-21T16:50:51.976Z,11.60
2022-10-21T16:53:56.684Z,14.00
2022-10-21T16:57:02.251Z,13.00
2022-10-21T17:00:07.626Z,15.00
2022-10-21T17:03:12.838Z,13.00
2022-10-21T17:06:17.189Z,15.00
2022-10-21T17:09:22.111Z,13.00
2022-10-21T17:12:26.004Z,14.00
2022-10-21T17:15:30.262Z,16.00
2022-10-21T17:18:33.672Z,12.00
2022-10-21T17:21:37.015Z,12.00
2022-10-21T17:24:47.748Z,15.00
2022-10-21T17:27:51.682Z,15.00
2022-10-21T17:30:56.935Z,15.00
2022-10-21T17:34:06.447Z,14.00
2022-10-21T17:37:11.991Z,16.00
2022-10-21T17:40:18.643Z,19.50
2022-10-21T17:43:21.925Z,22.00
2022-10-21T17:46:26.715Z,32.20
2022-10-21T17:49:30.008Z,26.00
2022-10-21T17:52:33.260Z,29.00
2022-10-21T17:55:37.961Z,24.00
2022-10-21T17:58:41.158Z,20.60
2022-10-21T18:01:44.610Z,19.00
2022-10-21T18:04:47.966Z,20.00
2022-10-21T18:07:51.404Z,21.00
2022-10-21T18:10:58.446Z,20.00
2022-10-21T18:14:02.061Z,27.00
2022-10-21T18:17:05.687Z,34.00
2022-10-21T18:20:10.463Z,28.80
2022-10-21T18:23:14.957Z,30.00
2022-10-21T18:26:24.956Z,34.00
2022-10-21T18:29:28.868Z,34.00
2022-10-21T18:32:32.756Z,28.00
2022-10-21T18:35:36.148Z,32.40
2022-10-21T18:38:39.532Z,33.00
2022-10-21T18:41:44.510Z,32.75
2022-10-21T18:44:47.849Z,28.00
2022-10-21T18:47:51.793Z,29.00
2022-10-21T18:50:55.148Z,30.40
2022-10-21T18:53:58.450Z,26.00
2022-10-21T18:57:03.795Z,29.00
2022-10-21T19:00:08.466Z,27.00
2022-10-21T19:03:12.064Z,28.80
2022-10-21T19:06:17.592Z,33.40
2022-10-21T19:09:22.774Z,52.00
2022-10-21T19:12:27.624Z,32.75
2022-10-21T19:15:31.203Z,34.00
2022-10-21T19:18:34.612Z,32.75
2022-10-21T19:21:37.866Z,32.00
2022-10-21T19:24:41.292Z,31.00
2022-10-21T19:27:45.903Z,32.40
2022-10-21T19:30:49.287Z,32.00
2022-10-21T19:33:53.231Z,28.00
2022-10-21T19:36:56.769Z,25.40
2022-10-21T19:40:00.054Z,26.25
2022-10-21T19:43:04.761Z,22.00
2022-10-21T19:46:10.134Z,23.00
2022-10-21T19:49:15.224Z,25.40
2022-10-21T19:52:18.535Z,22.00
2022-10-21T19:55:21.851Z,22.00
2022-10-21T19:58:26.541Z,22.00
2022-10-21T20:01:30.288Z,23.00
2022-10-21T20:04:35.354Z,22.20
2022-10-21T20:07:41.330Z,25.00
2022-10-21T20:10:45.762Z,24.00
2022-10-21T20:13:51.952Z,24.75
2022-10-21T20:16:55.180Z,23.00
2022-10-21T20:19:58.519Z,20.00
2022-10-21T20:23:01.785Z,22.00
2022-10-21T20:26:05.712Z,23.00
2022-10-21T20:29:11.241Z,22.00
2022-10-21T20:32:14.999Z,22.50
2022-10-21T20:35:19.338Z,23.00
2022-10-21T20:38:23.265Z,22.40
2022-10-21T20:41:31.133Z,21.00
2022-10-21T20:44:35.852Z,22.60
2022-10-21T20:47:39.704Z,22.00
2022-10-21T20:50:43.326Z,22.00
2022-10-21T20:56:51.442Z,22.00
2022-10-21T20:59:56.144Z,24.00
2022-10-21T21:02:59.366Z,23.00
2022-10-21T21:06:02.967Z,22.60
2022-10-21T21:12:30.018Z,21.00
2022-10-21T21:15:34.773Z,20.00
2022-10-21T21:18:39.490Z,22.40
2022-10-21T21:21:42.933Z,22.00
2022-10-21T21:24:46.365Z,22.60
2022-10-21T21:27:49.975Z,20.00
2022-10-21T21:30:54.664Z,22.00
2022-10-21T21:33:58.565Z,20.60
2022-10-21T21:37:02.172Z,22.00
2022-10-21T21:40:06.993Z,20.60
2022-10-21T21:43:10.253Z,22.80
2022-10-21T21:46:22.666Z,22.00
2022-10-21T21:49:26.586Z,22.40
2022-10-21T21:52:30.652Z,22.80
2022-10-21T21:55:33.915Z,24.00
2022-10-21T21:58:38.721Z,23.00
2022-10-21T22:01:43.704Z,23.00
2022-10-21T22:04:47.336Z,24.00
2022-10-21T22:07:50.655Z,23.00
2022-10-21T22:10:53.969Z,26.00
2022-10-21T22:13:57.335Z,25.25
2022-10-21T22:17:02.079Z,24.50
2022-10-21T22:20:06.891Z,24.00
2022-10-21T22:23:10.229Z,26.00
2022-10-21T22:26:14.598Z,24.75
2022-10-21T22:29:17.979Z,24.50
2022-10-21T22:32:22.940Z,25.60
2022-10-21T22:35:27.295Z,23.00
2022-10-21T22:38:30.885Z,24.00
2022-10-21T22:41:34.516Z,27.00
2022-10-21T22:44:37.876Z,26.00
2022-10-21T22:47:42.980Z,27.00
2022-10-21T22:50:47.344Z,27.00
2022-10-21T22:53:55.222Z,29.50
2022-10-21T22:56:59.881Z,29.20
2022-10-21T23:00:03.266Z,28.00
2022-10-21T23:03:09.741Z,28.00
2022-10-21T23:06:13.228Z,28.00
2022-10-21T23:09:16.578Z,32.00
2022-10-21T23:12:19.928Z,31.00
2022-10-21T23:15:23.363Z,31.00
2022-10-21T23:18:28.122Z,31.00
2022-10-21T23:21:31.465Z,31.40
2022-10-21T23:24:34.736Z,31.25
2022-10-21T23:27:38.143Z,31.00
2022-10-21T23:30:43.334Z,32.50
2022-10-21T23:33:49.048Z,32.00
2022-10-21T23:36:52.464Z,32.00
2022-10-21T23:39:55.840Z,32.00
2022-10-21T23:42:59.227Z,33.00
2022-10-21T23:46:02.612Z,32.20
2022-10-21T23:49:07.357Z,32.00
2022-10-21T23:52:10.790Z,32.00
2022-10-21T23:55:14.646Z,31.50
2022-10-21T23:58:18.041Z,31.00
